Time;durP1;ratioP1;P1;durP2;ratioP2;P2;SDS_P1;SDS_P2;PMS_P1;PMS_P2;Temp;Humidity;BMP_temperature;BMP_pressure;BME280_temperature;BME280_humidity;BME280_pressure;Samples;Min_cycle;Max_cycle;Signal;HPM_P1;HPM_P2
2022/01/24 00:02:00;;;;;;;;;;;6.60;80.00;;;;;;5022469;28;19944;-83
2022/01/24 00:04:26;;;;;;;;;;;6.60;80.00;;;;;;5029807;28;19924;-83
2022/01/24 00:06:51;;;;;;;;;;;6.60;80.20;;;;;;5022767;28;19925;-83
2022/01/24 00:09:17;;;;;;;;;;;6.60;80.40;;;;;;5019988;28;19913;-83
2022/01/24 00:12:02;;;;;;;;;;;6.60;80.00;;;;;;5015931;28;19917;-83
2022/01/24 00:17:18;;;;;;;;;;;6.70;80.20;;;;;;5032172;28;19920;-83
2022/01/24 00:27:56;;;;;;;;;;;6.50;78.70;;;;;;5038402;28;19920;-83
2022/01/24 00:30:22;;;;;;;;;;;6.60;78.90;;;;;;5035968;28;19917;-83
2022/01/24 00:32:47;;;;;;;;;;;6.50;78.60;;;;;;5034909;28;20024;-83
2022/01/24 00:35:13;;;;;;;;;;;6.50;78.80;;;;;;5039132;28;19913;-83
2022/01/24 00:37:38;;;;;;;;;;;6.50;79.40;;;;;;5039921;28;20002;-83
2022/01/24 00:40:04;;;;;;;;;;;6.50;79.10;;;;;;5024427;28;20461;-83
2022/01/24 00:42:47;;;;;;;;;;;6.50;79.80;;;;;;5016452;28;19923;-83
2022/01/24 00:45:28;;;;;;;;;;;6.40;78.80;;;;;;5040719;28;20399;-84
2022/01/24 00:53:16;;;;;;;;;;;6.70;78.30;;;;;;5032612;28;20017;-84
2022/01/24 00:55:42;;;;;;;;;;;6.70;78.30;;;;;;5022025;28;19925;-83
2022/01/24 00:58:08;;;;;;;;;;;6.70;77.80;;;;;;5038911;28;19914;-83
2022/01/24 01:00:34;;;;;;;;;;;6.60;78.70;;;;;;5037829;28;19913;-83
2022/01/24 01:02:59;;;;;;;;;;;6.60;79.10;;;;;;5022775;28;19913;-83
2022/01/24 01:05:48;;;;;;;;;;;6.50;79.80;;;;;;5023072;28;19967;-83
2022/01/24 01:19:13;;;;;;;;;;;6.50;80.60;;;;;;5040371;28;19982;-83
2022/01/24 01:21:38;;;;;;;;;;;6.50;80.70;;;;;;5009976;28;19972;-83
2022/01/24 01:24:04;;;;;;;;;;;6.50;80.70;;;;;;5020953;28;19917;-83
2022/01/24 01:26:42;;;;;;;;;;;6.50;81.00;;;;;;5022573;28;19913;-83
2022/01/24 01:29:14;;;;;;;;;;;6.50;81.10;;;;;;5038228;28;19913;-83
2022/01/24 01:31:49;;;;;;;;;;;6.50;80.70;;;;;;5036745;28;19972;-83
2022/01/24 01:34:33;;;;;;;;;;;6.50;80.20;;;;;;5052581;28;19905;-83
2022/01/24 01:39:45;;;;;;;;;;;6.50;80.80;;;;;;5046365;28;19920;-84
2022/01/24 01:55:52;;;;;;;;;;;6.50;80.30;;;;;;5035549;28;19927;-83
2022/01/24 01:58:19;;;;;;;;;;;6.50;80.70;;;;;;5037541;28;19947;-84
2022/01/24 02:00:46;;;;;;;;;;;6.50;80.60;;;;;;5036016;28;19913;-83
2022/01/24 02:03:11;;;;;;;;;;;6.50;80.80;;;;;;5029732;28;20364;-83
2022/01/24 02:05:37;;;;;;;;;;;6.40;80.80;;;;;;5038445;28;20086;-83
2022/01/24 02:08:03;;;;;;;;;;;6.40;80.80;;;;;;5038697;28;19913;-84
2022/01/24 02:10:29;;;;;;;;;;;6.50;80.60;;;;;;5015759;28;20306;-83
2022/01/24 02:12:56;;;;;;;;;;;6.60;79.80;;;;;;5011749;28;19968;-83
2022/01/24 02:16:17;;;;;;;;;;;6.70;79.40;;;;;;5037079;28;19998;-83
2022/01/24 02:18:28;;;;;;;;;;;6.60;79.30;;;;;;5033453;28;19901;-81
2022/01/24 02:21:08;;;;;;;;;;;6.50;79.50;;;;;;5021532;28;19920;-83
2022/01/24 02:26:05;;;;;;;;;;;6.40;80.10;;;;;;5035628;28;19940;-83
2022/01/24 02:28:43;;;;;;;;;;;6.50;80.00;;;;;;5019966;28;19913;-83
2022/01/24 02:31:37;;;;;;;;;;;6.50;79.20;;;;;;5008759;28;19976;-83
2022/01/24 02:34:04;;;;;;;;;;;6.50;79.50;;;;;;5022104;28;20519;-84
2022/01/24 02:36:30;;;;;;;;;;;6.50;79.80;;;;;;5021251;28;19955;-83
2022/01/24 02:49:50;;;;;;;;;;;6.50;80.50;;;;;;5031258;28;19920;-83
2022/01/24 02:52:17;;;;;;;;;;;6.50;80.70;;;;;;5008793;28;19917;-83
2022/01/24 02:54:42;;;;;;;;;;;6.50;80.30;;;;;;5020499;28;19924;-83
2022/01/24 02:57:09;;;;;;;;;;;6.60;80.30;;;;;;5019172;28;19912;-84
2022/01/24 02:59:36;;;;;;;;;;;6.60;80.50;;;;;;5013039;28;19914;-83
2022/01/24 03:02:02;;;;;;;;;;;6.50;80.50;;;;;;5028499;28;20392;-83
2022/01/24 03:04:27;;;;;;;;;;;6.50;80.70;;;;;;5038810;28;20004;-84
2022/01/24 03:06:53;;;;;;;;;;;6.60;80.40;;;;;;5017579;28;19914;-83
2022/01/24 03:09:21;;;;;;;;;;;6.50;80.80;;;;;;5034849;28;20439;-83
2022/01/24 03:14:16;;;;;;;;;;;6.50;80.80;;;;;;5031052;28;20326;-83
2022/01/24 03:16:42;;;;;;;;;;;6.50;81.00;;;;;;5015117;28;19944;-83
2022/01/24 03:19:07;;;;;;;;;;;6.50;81.20;;;;;;5029598;28;19913;-83
2022/01/24 03:21:33;;;;;;;;;;;6.50;81.30;;;;;;5016691;28;19967;-84
2022/01/24 03:23:58;;;;;;;;;;;6.40;81.20;;;;;;5019159;28;20269;-83
2022/01/24 03:26:24;;;;;;;;;;;6.50;81.40;;;;;;5003505;28;19917;-83
2022/01/24 03:28:49;;;;;;;;;;;6.50;81.00;;;;;;5032299;28;19913;-83
2022/01/24 03:31:15;;;;;;;;;;;6.50;80.80;;;;;;5007992;28;19917;-83
2022/01/24 03:33:40;;;;;;;;;;;6.40;81.10;;;;;;5032056;28;19973;-83
2022/01/24 03:36:06;;;;;;;;;;;6.50;81.10;;;;;;5030894;28;19960;-83
2022/01/24 03:38:31;;;;;;;;;;;6.40;81.30;;;;;;5042872;28;19921;-83
2022/01/24 03:40:57;;;;;;;;;;;6.40;81.50;;;;;;5053028;28;19917;-82
2022/01/24 03:43:22;;;;;;;;;;;6.50;81.10;;;;;;5036998;28;19929;-83
2022/01/24 03:46:09;;;;;;;;;;;6.50;81.00;;;;;;5043071;28;19928;-84
2022/01/24 03:48:43;;;;;;;;;;;6.50;81.10;;;;;;5037513;28;19936;-84
2022/01/24 03:51:09;;;;;;;;;;;6.50;81.20;;;;;;5045062;28;19925;-83
2022/01/24 03:53:34;;;;;;;;;;;6.50;81.00;;;;;;5040335;28;19913;-83
2022/01/24 03:56:00;;;;;;;;;;;6.50;81.00;;;;;;5032306;28;19963;-82
2022/01/24 03:58:26;;;;;;;;;;;6.50;81.10;;;;;;5034568;28;19944;-84
2022/01/24 04:00:51;;;;;;;;;;;6.50;81.30;;;;;;5024560;28;19980;-83
2022/01/24 04:03:17;;;;;;;;;;;6.50;81.30;;;;;;5021861;28;20011;-83
2022/01/24 04:05:43;;;;;;;;;;;6.50;81.30;;;;;;5020839;28;20271;-84
2022/01/24 04:08:09;;;;;;;;;;;6.50;81.70;;;;;;5013550;28;19920;-83
2022/01/24 04:10:41;;;;;;;;;;;6.40;82.40;;;;;;5030820;28;19921;-83
2022/01/24 04:13:21;;;;;;;;;;;6.50;82.40;;;;;;5021623;28;20000;-83
2022/01/24 04:15:58;;;;;;;;;;;6.40;82.30;;;;;;5022702;28;19914;-83
2022/01/24 04:21:24;;;;;;;;;;;6.40;81.90;;;;;;5041177;28;19983;-83
2022/01/24 04:23:59;;;;;;;;;;;6.50;81.50;;;;;;5023150;28;19916;-83
2022/01/24 04:26:25;;;;;;;;;;;6.40;81.30;;;;;;5034542;28;19917;-83
2022/01/24 04:28:51;;;;;;;;;;;6.30;81.50;;;;;;5015442;28;19919;-82
2022/01/24 04:31:17;;;;;;;;;;;6.30;81.80;;;;;;5015518;28;20001;-83
2022/01/24 04:33:43;;;;;;;;;;;6.40;81.80;;;;;;5017079;28;20004;-82
2022/01/24 04:36:08;;;;;;;;;;;6.30;81.90;;;;;;5016839;28;20384;-83
2022/01/24 04:38:34;;;;;;;;;;;6.30;81.70;;;;;;5033222;28;19957;-83
2022/01/24 04:41:04;;;;;;;;;;;6.30;81.90;;;;;;5034624;28;20357;-83
2022/01/24 04:51:31;;;;;;;;;;;6.30;81.80;;;;;;5034141;28;19921;-84
2022/01/24 04:54:37;;;;;;;;;;;6.30;81.50;;;;;;5033045;28;19920;-84
2022/01/24 04:56:41;;;;;;;;;;;6.40;81.30;;;;;;5032946;28;20412;-84
2022/01/24 04:59:07;;;;;;;;;;;6.40;81.00;;;;;;5018588;28;19947;-82
2022/01/24 05:01:36;;;;;;;;;;;6.40;81.30;;;;;;5020911;28;19913;-82
2022/01/24 05:04:02;;;;;;;;;;;6.50;80.70;;;;;;5018410;28;20016;-83
2022/01/24 05:06:27;;;;;;;;;;;6.40;81.40;;;;;;5020458;28;19944;-83
2022/01/24 05:08:53;;;;;;;;;;;6.50;80.90;;;;;;5033137;28;19913;-83
2022/01/24 05:11:25;;;;;;;;;;;6.50;80.80;;;;;;5020179;28;19917;-83
2022/01/24 05:24:33;;;;;;;;;;;6.40;81.30;;;;;;5052882;28;19928;-83
2022/01/24 05:26:58;;;;;;;;;;;6.40;81.60;;;;;;5014930;28;19993;-83
2022/01/24 05:29:24;;;;;;;;;;;6.40;81.50;;;;;;5041790;28;19913;-83
2022/01/24 05:31:49;;;;;;;;;;;6.40;80.90;;;;;;5040954;28;20438;-83
2022/01/24 05:34:15;;;;;;;;;;;6.40;81.10;;;;;;5038940;28;19917;-83
2022/01/24 05:36:40;;;;;;;;;;;6.50;80.40;;;;;;5023317;28;19920;-83
2022/01/24 05:39:06;;;;;;;;;;;6.60;79.50;;;;;;5022266;28;19980;-83
2022/01/24 05:41:32;;;;;;;;;;;6.50;79.80;;;;;;5039968;28;19928;-83
2022/01/24 05:43:57;;;;;;;;;;;6.40;79.90;;;;;;5040118;28;19936;-82
2022/01/24 05:46:23;;;;;;;;;;;6.40;79.80;;;;;;5038776;28;19913;-83
2022/01/24 05:48:48;;;;;;;;;;;6.50;79.20;;;;;;5036085;28;19913;-83
2022/01/24 05:51:14;;;;;;;;;;;6.60;79.40;;;;;;5039123;28;19997;-83
2022/01/24 05:53:39;;;;;;;;;;;6.40;79.70;;;;;;5020135;28;20388;-83
2022/01/24 05:56:05;;;;;;;;;;;6.50;79.50;;;;;;5036050;28;19913;-82
2022/01/24 05:58:30;;;;;;;;;;;6.50;80.60;;;;;;5020480;28;20225;-83
2022/01/24 06:00:56;;;;;;;;;;;6.30;80.00;;;;;;5037339;28;20003;-83
2022/01/24 06:03:21;;;;;;;;;;;6.40;80.10;;;;;;5039076;28;20381;-83
2022/01/24 06:05:47;;;;;;;;;;;6.10;79.70;;;;;;5017005;28;19933;-83
2022/01/24 06:08:12;;;;;;;;;;;6.10;81.10;;;;;;5014255;28;19920;-83
2022/01/24 06:10:39;;;;;;;;;;;6.30;80.40;;;;;;5038153;28;20367;-81
2022/01/24 06:13:05;;;;;;;;;;;6.30;80.60;;;;;;5009051;28;19913;-81
2022/01/24 06:15:31;;;;;;;;;;;6.30;80.90;;;;;;5017314;28;20474;-82
2022/01/24 06:17:56;;;;;;;;;;;6.30;80.70;;;;;;5026675;28;19913;-82
2022/01/24 06:20:24;;;;;;;;;;;6.30;80.80;;;;;;5145122;22;19935;-84
2022/01/24 06:22:49;;;;;;;;;;;6.30;81.00;;;;;;5011021;28;19914;-84
2022/01/24 06:25:20;;;;;;;;;;;6.30;81.00;;;;;;5028328;28;19921;-84
2022/01/24 06:27:46;;;;;;;;;;;6.50;80.10;;;;;;5038775;28;19939;-84
2022/01/24 06:30:11;;;;;;;;;;;6.40;80.50;;;;;;5020083;28;19914;-82
2022/01/24 06:32:38;;;;;;;;;;;6.40;80.50;;;;;;5031613;28;19940;-83
2022/01/24 06:35:04;;;;;;;;;;;6.30;80.80;;;;;;5014576;28;19980;-82
2022/01/24 06:37:29;;;;;;;;;;;6.40;80.40;;;;;;5028462;28;20347;-83
2022/01/24 06:39:56;;;;;;;;;;;6.50;79.90;;;;;;5025415;28;19945;-83
2022/01/24 06:42:23;;;;;;;;;;;6.50;79.50;;;;;;5004570;28;20402;-82
2022/01/24 06:44:49;;;;;;;;;;;6.40;79.10;;;;;;5001825;28;19913;-85
2022/01/24 06:47:14;;;;;;;;;;;6.30;79.50;;;;;;5027510;28;19979;-84
2022/01/24 06:49:40;;;;;;;;;;;6.20;80.20;;;;;;5010184;28;19913;-84
2022/01/24 06:52:06;;;;;;;;;;;6.30;80.30;;;;;;5026413;28;20016;-83
2022/01/24 06:54:35;;;;;;;;;;;6.30;80.40;;;;;;5020643;28;20279;-84
2022/01/24 06:57:01;;;;;;;;;;;6.30;80.70;;;;;;5033246;28;19924;-84
2022/01/24 06:59:26;;;;;;;;;;;6.40;80.10;;;;;;5032226;28;19929;-84
2022/01/24 07:01:52;;;;;;;;;;;6.30;80.30;;;;;;5011955;28;19913;-83
2022/01/24 07:04:17;;;;;;;;;;;6.30;80.40;;;;;;5023580;28;20004;-84
2022/01/24 07:06:43;;;;;;;;;;;6.30;80.20;;;;;;5031711;28;19920;-84
2022/01/24 07:09:08;;;;;;;;;;;6.30;80.00;;;;;;5033238;28;19949;-84
2022/01/24 07:11:34;;;;;;;;;;;6.30;80.50;;;;;;5014692;28;19995;-83
2022/01/24 07:14:00;;;;;;;;;;;6.30;80.10;;;;;;5013425;28;19916;-83
2022/01/24 07:16:36;;;;;;;;;;;6.30;80.40;;;;;;5030615;28;20580;-84
2022/01/24 07:19:03;;;;;;;;;;;6.40;80.10;;;;;;5013258;28;20008;-87
2022/01/24 07:21:30;;;;;;;;;;;6.40;79.50;;;;;;5009756;28;19999;-88
2022/01/24 07:23:56;;;;;;;;;;;6.40;80.00;;;;;;5011632;28;19925;-87
2022/01/24 07:26:21;;;;;;;;;;;6.40;80.20;;;;;;5024139;28;19932;-87
2022/01/24 07:28:47;;;;;;;;;;;6.50;80.20;;;;;;5028419;28;19920;-86
2022/01/24 07:31:12;;;;;;;;;;;6.50;79.20;;;;;;5010301;28;20028;-86
2022/01/24 07:33:40;;;;;;;;;;;6.60;78.90;;;;;;4996309;28;19909;-87
2022/01/24 07:36:05;;;;;;;;;;;6.70;78.20;;;;;;4994867;28;19914;-86
2022/01/24 07:38:31;;;;;;;;;;;6.70;78.80;;;;;;5029801;28;19913;-87
2022/01/24 07:40:57;;;;;;;;;;;6.60;78.90;;;;;;5012876;28;19917;-86
2022/01/24 07:43:23;;;;;;;;;;;6.60;79.00;;;;;;5007525;28;19940;-86
2022/01/24 07:45:49;;;;;;;;;;;6.60;79.10;;;;;;5024472;28;19934;-86
2022/01/24 07:48:15;;;;;;;;;;;6.60;79.10;;;;;;5024691;28;19917;-86
2022/01/24 07:50:44;;;;;;;;;;;6.60;79.10;;;;;;5016246;28;20311;-86
2022/01/24 07:53:22;;;;;;;;;;;6.70;79.50;;;;;;5016863;28;19921;-86
2022/01/24 07:55:48;;;;;;;;;;;6.70;79.20;;;;;;5015785;28;19913;-86
2022/01/24 07:58:14;;;;;;;;;;;6.70;79.30;;;;;;5033768;28;19920;-86
2022/01/24 08:00:39;;;;;;;;;;;6.70;79.10;;;;;;5014416;28;19935;-85
2022/01/24 08:03:05;;;;;;;;;;;6.90;78.30;;;;;;5036506;28;20422;-86
2022/01/24 08:05:31;;;;;;;;;;;6.90;78.00;;;;;;5032819;28;19913;-84
2022/01/24 08:07:56;;;;;;;;;;;6.90;78.30;;;;;;5043400;28;19921;-85
2022/01/24 08:10:22;;;;;;;;;;;6.80;78.40;;;;;;5027868;28;19914;-84
2022/01/24 08:12:47;;;;;;;;;;;6.90;78.00;;;;;;5007936;28;19967;-86
2022/01/24 08:15:16;;;;;;;;;;;7.00;78.10;;;;;;5007866;28;20624;-86
2022/01/24 08:17:43;;;;;;;;;;;7.00;77.80;;;;;;5012684;28;19920;-86
2022/01/24 08:20:09;;;;;;;;;;;7.20;76.90;;;;;;5017856;28;19924;-86
2022/01/24 08:22:35;;;;;;;;;;;7.00;77.40;;;;;;5011002;28;19913;-87
2022/01/24 08:25:04;;;;;;;;;;;7.10;77.20;;;;;;5016409;28;20004;-85
2022/01/24 08:27:33;;;;;;;;;;;7.00;77.70;;;;;;5034705;28;19981;-87
2022/01/24 08:29:58;;;;;;;;;;;6.90;77.90;;;;;;5015067;28;19913;-86
2022/01/24 08:32:24;;;;;;;;;;;7.00;78.00;;;;;;5016476;28;19921;-86
2022/01/24 08:34:50;;;;;;;;;;;7.00;77.30;;;;;;5025622;28;19996;-88
2022/01/24 08:37:15;;;;;;;;;;;7.00;77.40;;;;;;5025545;28;20375;-87
2022/01/24 08:39:41;;;;;;;;;;;7.00;77.40;;;;;;5022125;28;20466;-88
2022/01/24 08:42:28;;;;;;;;;;;7.10;76.90;;;;;;5018303;28;19937;-88
2022/01/24 08:47:35;;;;;;;;;;;7.00;77.50;;;;;;5032660;28;19913;-89
2022/01/24 08:50:00;;;;;;;;;;;7.00;77.40;;;;;;5016872;28;19963;-89
2022/01/24 08:52:26;;;;;;;;;;;7.00;77.00;;;;;;5016371;28;19953;-88
2022/01/24 08:54:57;;;;;;;;;;;7.00;77.00;;;;;;5004581;28;20264;-89
2022/01/24 08:57:25;;;;;;;;;;;7.00;76.90;;;;;;5016393;28;20288;-89
2022/01/24 08:59:55;;;;;;;;;;;7.00;76.90;;;;;;5011646;28;19971;-90
2022/01/24 09:02:21;;;;;;;;;;;7.00;76.80;;;;;;5006006;28;19932;-91
2022/01/24 09:04:47;;;;;;;;;;;7.00;77.00;;;;;;5030312;28;19917;-87
2022/01/24 09:07:13;;;;;;;;;;;6.90;77.00;;;;;;5023267;28;19920;-86
2022/01/24 09:09:39;;;;;;;;;;;7.00;76.50;;;;;;5024941;28;20011;-84
2022/01/24 09:12:05;;;;;;;;;;;7.00;77.00;;;;;;5023215;28;20056;-84
2022/01/24 09:14:31;;;;;;;;;;;6.60;77.00;;;;;;5009893;28;20287;-87
2022/01/24 09:16:56;;;;;;;;;;;6.20;78.00;;;;;;5014868;28;20004;-85
2022/01/24 09:19:22;;;;;;;;;;;6.40;78.50;;;;;;5009456;28;19917;-85
2022/01/24 09:21:48;;;;;;;;;;;6.30;78.00;;;;;;5019734;28;19924;-87
2022/01/24 09:24:13;;;;;;;;;;;6.50;78.70;;;;;;5002641;28;19914;-87
2022/01/24 09:26:39;;;;;;;;;;;6.60;78.10;;;;;;5016513;28;20352;-87
2022/01/24 09:29:05;;;;;;;;;;;6.80;77.60;;;;;;5032591;28;20314;-86
2022/01/24 09:31:30;;;;;;;;;;;6.70;77.10;;;;;;5006872;28;19976;-86
2022/01/24 09:33:56;;;;;;;;;;;6.70;77.30;;;;;;5005648;28;19940;-84
2022/01/24 09:36:23;;;;;;;;;;;6.60;77.50;;;;;;5005515;28;19913;-88
2022/01/24 09:38:49;;;;;;;;;;;6.70;77.90;;;;;;5032889;28;20011;-88
2022/01/24 09:41:14;;;;;;;;;;;6.80;78.40;;;;;;5014703;28;19965;-86
2022/01/24 09:43:41;;;;;;;;;;;6.80;78.00;;;;;;5011753;28;19925;-87
2022/01/24 09:46:08;;;;;;;;;;;6.60;78.10;;;;;;5012587;28;19920;-87
2022/01/24 09:48:34;;;;;;;;;;;6.90;78.00;;;;;;5032668;28;19913;-87
2022/01/24 09:50:59;;;;;;;;;;;7.10;76.80;;;;;;5004360;28;20431;-87
2022/01/24 09:53:25;;;;;;;;;;;7.20;76.40;;;;;;5012737;28;19948;-87
2022/01/24 09:55:51;;;;;;;;;;;7.20;76.60;;;;;;5013579;28;19914;-87
2022/01/24 09:58:16;;;;;;;;;;;7.20;76.40;;;;;;5032918;28;19959;-87
2022/01/24 10:00:42;;;;;;;;;;;7.30;76.00;;;;;;5018801;28;19932;-88
2022/01/24 10:03:08;;;;;;;;;;;7.30;76.30;;;;;;5010712;28;19914;-86
2022/01/24 10:05:37;;;;;;;;;;;7.20;75.70;;;;;;5012260;28;20059;-87
2022/01/24 10:08:05;;;;;;;;;;;7.10;76.10;;;;;;5014605;28;19913;-88
2022/01/24 10:10:51;;;;;;;;;;;7.20;76.70;;;;;;5007127;28;20023;-83
2022/01/24 10:19:14;;;;;;;;;;;7.30;75.50;;;;;;4975675;28;20001;-83
2022/01/24 10:21:43;;;;;;;;;;;7.10;75.90;;;;;;4954724;28;19918;-81
2022/01/24 10:24:10;;;;;;;;;;;6.90;76.80;;;;;;4993890;28;20387;-81
2022/01/24 10:26:35;;;;;;;;;;;7.00;76.80;;;;;;5024882;28;19924;-82
2022/01/24 10:29:08;;;;;;;;;;;7.00;76.60;;;;;;5012068;28;19913;-81
2022/01/24 10:31:33;;;;;;;;;;;7.00;76.10;;;;;;5027197;28;20020;-81
2022/01/24 10:34:06;;;;;;;;;;;7.00;76.80;;;;;;5028358;28;19956;-82
2022/01/24 10:36:42;;;;;;;;;;;6.90;77.30;;;;;;5028066;28;19913;-82
2022/01/24 10:39:12;;;;;;;;;;;6.80;76.90;;;;;;5021634;28;19913;-82
2022/01/24 10:42:09;;;;;;;;;;;6.90;77.30;;;;;;5005203;28;19964;-82
2022/01/24 10:44:36;;;;;;;;;;;6.80;77.30;;;;;;5013060;28;20372;-82
2022/01/24 10:47:12;;;;;;;;;;;6.80;76.50;;;;;;5016510;28;19932;-80
2022/01/24 10:49:38;;;;;;;;;;;6.90;77.00;;;;;;5012901;28;19956;-82
2022/01/24 10:52:29;;;;;;;;;;;7.00;76.20;;;;;;5010789;28;19975;-80
2022/01/24 10:55:15;;;;;;;;;;;7.00;76.00;;;;;;5027610;28;19959;-81
2022/01/24 10:57:41;;;;;;;;;;;7.00;75.70;;;;;;5030456;28;19984;-82
2022/01/24 11:00:10;;;;;;;;;;;7.00;76.40;;;;;;5029734;28;19945;-81
2022/01/24 11:02:36;;;;;;;;;;;7.00;76.60;;;;;;5030804;28;20386;-80
2022/01/24 11:05:31;;;;;;;;;;;7.10;76.00;;;;;;5031724;28;19912;-81
2022/01/24 11:08:09;;;;;;;;;;;7.20;75.80;;;;;;5016789;28;20356;-83
2022/01/24 11:10:34;;;;;;;;;;;7.30;74.90;;;;;;5020183;28;19952;-83
2022/01/24 11:13:02;;;;;;;;;;;7.00;75.00;;;;;;5009376;28;19971;-82
2022/01/24 11:15:28;;;;;;;;;;;7.00;75.40;;;;;;5002706;28;19913;-81
2022/01/24 11:17:53;;;;;;;;;;;6.90;76.10;;;;;;5012446;28;20453;-82
2022/01/24 11:20:21;;;;;;;;;;;6.80;76.00;;;;;;5012892;28;20458;-82
2022/01/24 11:23:00;;;;;;;;;;;6.70;76.50;;;;;;5015245;28;19909;-82
2022/01/24 11:25:31;;;;;;;;;;;6.80;76.80;;;;;;5014460;28;19924;-83
2022/01/24 11:27:56;;;;;;;;;;;7.00;75.80;;;;;;5032700;28;19913;-83
2022/01/24 11:30:30;;;;;;;;;;;7.00;75.90;;;;;;5003786;28;19997;-83
2022/01/24 11:33:16;;;;;;;;;;;7.10;75.00;;;;;;5027531;28;19924;-83
2022/01/24 11:35:51;;;;;;;;;;;7.10;75.50;;;;;;5032907;28;19913;-84
2022/01/24 11:38:31;;;;;;;;;;;7.10;75.40;;;;;;5027352;28;19936;-82
2022/01/24 11:40:59;;;;;;;;;;;7.10;76.20;;;;;;5020302;28;20349;-83
2022/01/24 11:43:29;;;;;;;;;;;7.10;76.30;;;;;;5028550;28;19920;-86
2022/01/24 11:46:06;;;;;;;;;;;7.10;75.80;;;;;;5010621;28;19924;-85
2022/01/24 11:48:32;;;;;;;;;;;7.10;75.70;;;;;;4996133;28;20009;-80
2022/01/24 11:51:03;;;;;;;;;;;7.10;75.40;;;;;;4998970;28;19995;-84
2022/01/24 11:53:32;;;;;;;;;;;7.20;75.10;;;;;;5031281;28;19929;-86
2022/01/24 11:56:15;;;;;;;;;;;7.00;75.40;;;;;;5014133;28;20015;-83
2022/01/24 11:58:41;;;;;;;;;;;6.90;76.10;;;;;;5010987;28;19920;-84
2022/01/24 12:01:07;;;;;;;;;;;6.80;76.20;;;;;;5013585;28;19910;-83
2022/01/24 12:03:34;;;;;;;;;;;6.90;76.00;;;;;;5014976;28;19989;-84
2022/01/24 12:06:09;;;;;;;;;;;6.80;76.20;;;;;;5031412;28;20020;-84
2022/01/24 12:08:41;;;;;;;;;;;6.90;76.20;;;;;;5015456;28;19917;-84
2022/01/24 12:11:13;;;;;;;;;;;7.00;76.70;;;;;;5014151;28;20283;-85
2022/01/24 12:13:43;;;;;;;;;;;7.10;75.00;;;;;;5002493;28;19955;-84
2022/01/24 12:16:10;;;;;;;;;;;7.10;74.90;;;;;;5030224;28;19960;-84
2022/01/24 12:18:36;;;;;;;;;;;7.10;75.30;;;;;;5034094;28;20257;-85
2022/01/24 12:21:01;;;;;;;;;;;6.90;75.40;;;;;;5032623;22;20007;-86
2022/01/24 12:23:30;;;;;;;;;;;7.00;75.30;;;;;;5009947;28;20035;-86
2022/01/24 12:26:02;;;;;;;;;;;7.00;75.20;;;;;;4994079;28;19978;-85
2022/01/24 12:28:29;;;;;;;;;;;6.80;75.90;;;;;;5002266;28;19941;-86
2022/01/24 12:30:58;;;;;;;;;;;6.60;77.10;;;;;;5013581;28;19915;-86
2022/01/24 12:33:34;;;;;;;;;;;6.70;77.00;;;;;;5016269;28;19933;-88
2022/01/24 12:36:01;;;;;;;;;;;6.70;77.10;;;;;;5013553;28;20395;-83
2022/01/24 12:38:38;;;;;;;;;;;6.60;76.90;;;;;;4988795;28;19917;-83
2022/01/24 12:41:13;;;;;;;;;;;6.40;76.40;;;;;;4978484;28;19932;-83
2022/01/24 12:43:53;;;;;;;;;;;6.20;77.70;;;;;;4997929;28;19967;-85
2022/01/24 12:46:25;;;;;;;;;;;6.40;78.00;;;;;;4999332;28;19948;-84
2022/01/24 12:48:52;;;;;;;;;;;6.30;78.00;;;;;;4981864;28;19914;-84
2022/01/24 12:51:21;;;;;;;;;;;6.40;77.90;;;;;;4984411;28;20652;-83
2022/01/24 12:53:46;;;;;;;;;;;6.20;77.30;;;;;;5007017;28;20374;-82
2022/01/24 12:56:13;;;;;;;;;;;6.20;77.10;;;;;;4998753;28;19910;-84
2022/01/24 12:58:43;;;;;;;;;;;6.20;77.90;;;;;;5018026;28;19982;-83
2022/01/24 13:01:16;;;;;;;;;;;6.30;77.80;;;;;;5006021;28;20011;-84
2022/01/24 13:04:02;;;;;;;;;;;6.60;77.30;;;;;;5011194;28;19922;-85
2022/01/24 13:06:32;;;;;;;;;;;6.60;77.30;;;;;;4996844;28;19913;-85
2022/01/24 13:09:19;;;;;;;;;;;6.80;76.90;;;;;;4995918;28;20440;-85
2022/01/24 13:11:57;;;;;;;;;;;6.90;76.40;;;;;;4990504;28;20633;-91
2022/01/24 13:22:29;;;;;;;;;;;7.10;75.80;;;;;;5025079;28;20103;-88
2022/01/24 13:25:12;;;;;;;;;;;7.00;75.60;;;;;;5002003;28;20381;-87
2022/01/24 13:27:37;;;;;;;;;;;6.90;76.40;;;;;;4984359;28;20012;-88
2022/01/24 13:30:04;;;;;;;;;;;7.00;76.10;;;;;;5016206;28;19952;-85
2022/01/24 13:32:47;;;;;;;;;;;6.90;75.40;;;;;;4997095;28;19917;-88
2022/01/24 13:35:25;;;;;;;;;;;6.80;76.30;;;;;;4988458;28;19914;-87
2022/01/24 13:37:54;;;;;;;;;;;6.60;76.60;;;;;;4988761;28;19914;-86
2022/01/24 13:40:31;;;;;;;;;;;6.50;77.80;;;;;;5011446;28;19913;-89
2022/01/24 13:42:57;;;;;;;;;;;6.60;76.70;;;;;;4997411;28;19909;-87
2022/01/24 13:45:23;;;;;;;;;;;6.60;76.50;;;;;;4993583;28;20061;-84
2022/01/24 13:47:56;;;;;;;;;;;6.70;76.60;;;;;;5000030;28;19921;-84
2022/01/24 13:50:21;;;;;;;;;;;6.70;77.00;;;;;;4997250;28;19975;-84
2022/01/24 13:52:50;;;;;;;;;;;6.50;76.90;;;;;;5000429;28;19968;-84
2022/01/24 13:55:17;;;;;;;;;;;6.60;76.90;;;;;;4989934;28;19913;-83
2022/01/24 13:57:47;;;;;;;;;;;6.70;76.70;;;;;;5019274;28;19913;-86
2022/01/24 14:00:16;;;;;;;;;;;6.50;77.40;;;;;;4993199;28;19914;-85
2022/01/24 14:02:47;;;;;;;;;;;6.60;77.50;;;;;;5025255;28;20003;-85
2022/01/24 14:05:12;;;;;;;;;;;6.70;77.10;;;;;;5002818;28;20033;-87
2022/01/24 14:07:41;;;;;;;;;;;6.80;77.00;;;;;;4998483;28;19929;-86
2022/01/24 14:10:09;;;;;;;;;;;6.40;76.40;;;;;;5000784;28;20009;-86
2022/01/24 14:12:59;;;;;;;;;;;6.50;77.30;;;;;;5006005;28;19993;-86
2022/01/24 14:20:35;;;;;;;;;;;6.30;78.30;;;;;;5013842;28;19917;-82
2022/01/24 14:23:03;;;;;;;;;;;6.30;78.60;;;;;;5001635;28;19917;-84
2022/01/24 14:25:31;;;;;;;;;;;6.20;78.40;;;;;;4996765;28;20287;-84
2022/01/24 14:28:06;;;;;;;;;;;6.30;78.80;;;;;;4994995;28;20359;-82
2022/01/24 14:30:32;;;;;;;;;;;6.40;79.10;;;;;;5012596;28;19917;-80
2022/01/24 14:32:58;;;;;;;;;;;6.60;78.40;;;;;;4994622;28;19964;-84
2022/01/24 14:35:23;;;;;;;;;;;6.50;77.80;;;;;;4996411;28;20079;-82
2022/01/24 14:37:50;;;;;;;;;;;6.30;78.40;;;;;;5005730;28;19936;-82
2022/01/24 14:40:34;;;;;;;;;;;6.40;78.50;;;;;;5014194;28;19922;-82
2022/01/24 14:44:53;;;;;;;;;;;6.50;78.20;;;;;;5009228;28;19949;-80
2022/01/24 14:45:45;;;;;;;;;;;6.50;77.80;;;;;;5009778;28;19917;-77
2022/01/24 14:48:11;;;;;;;;;;;6.60;77.60;;;;;;5003717;28;19917;-81
2022/01/24 14:50:36;;;;;;;;;;;6.50;77.60;;;;;;5028536;28;20011;-79
2022/01/24 14:53:05;;;;;;;;;;;6.00;77.30;;;;;;5019450;28;20399;-80
2022/01/24 14:55:31;;;;;;;;;;;5.90;79.50;;;;;;4998614;28;19937;-80
2022/01/24 14:57:57;;;;;;;;;;;6.10;79.70;;;;;;5002768;28;19920;-80
2022/01/24 15:00:22;;;;;;;;;;;6.20;79.60;;;;;;4998927;28;19910;-84
2022/01/24 15:02:48;;;;;;;;;;;6.40;78.90;;;;;;5013592;28;19978;-79
2022/01/24 15:05:15;;;;;;;;;;;6.50;77.70;;;;;;4996048;28;19953;-82
2022/01/24 15:07:40;;;;;;;;;;;6.60;77.20;;;;;;5008812;28;19914;-80
2022/01/24 15:10:07;;;;;;;;;;;6.50;77.50;;;;;;5014274;28;20252;-80
2022/01/24 15:12:35;;;;;;;;;;;6.60;77.10;;;;;;5000424;28;19929;-80
2022/01/24 15:15:02;;;;;;;;;;;6.70;77.30;;;;;;5016089;28;20019;-81
2022/01/24 15:23:54;;;;;;;;;;;6.50;77.60;;;;;;5008334;28;19928;-83
2022/01/24 15:25:50;;;;;;;;;;;5.60;78.40;;;;;;5015929;28;20295;-82
2022/01/24 15:28:17;;;;;;;;;;;5.50;79.30;;;;;;4998779;28;20002;-80
2022/01/24 15:30:43;;;;;;;;;;;5.50;79.50;;;;;;5012616;28;19933;-79
2022/01/24 15:33:08;;;;;;;;;;;5.50;79.70;;;;;;4995496;28;19925;-79
2022/01/24 15:35:34;;;;;;;;;;;5.70;80.30;;;;;;4990905;28;19939;-80
2022/01/24 15:38:03;;;;;;;;;;;5.60;79.90;;;;;;4983640;28;20005;-80
2022/01/24 15:40:31;;;;;;;;;;;5.80;80.00;;;;;;4990740;28;19995;-79
2022/01/24 15:43:03;;;;;;;;;;;5.90;80.00;;;;;;4983854;28;19941;-81
2022/01/24 15:45:35;;;;;;;;;;;6.00;79.80;;;;;;5006734;28;19933;-81
2022/01/24 15:48:01;;;;;;;;;;;6.00;79.70;;;;;;4979898;28;19918;-79
2022/01/24 15:50:27;;;;;;;;;;;6.10;79.30;;;;;;4976121;28;19929;-79
2022/01/24 15:52:53;;;;;;;;;;;5.80;79.50;;;;;;4989883;28;19917;-79
2022/01/24 15:55:26;;;;;;;;;;;5.70;80.10;;;;;;4987246;28;19913;-81
2022/01/24 15:57:53;;;;;;;;;;;5.80;79.90;;;;;;5002842;28;19949;-81
2022/01/24 16:00:20;;;;;;;;;;;5.90;79.60;;;;;;4987113;28;19914;-79
2022/01/24 16:02:50;;;;;;;;;;;6.00;79.60;;;;;;4988809;28;19913;-80
2022/01/24 16:05:16;;;;;;;;;;;6.00;79.80;;;;;;4980773;28;19914;-80
2022/01/24 16:07:42;;;;;;;;;;;6.00;79.50;;;;;;4998102;28;19956;-79
2022/01/24 16:10:15;;;;;;;;;;;5.80;79.60;;;;;;5027554;28;19913;-80
2022/01/24 16:12:43;;;;;;;;;;;5.90;79.70;;;;;;4991283;28;19918;-79
2022/01/24 16:15:09;;;;;;;;;;;5.80;79.70;;;;;;4987773;28;19922;-80
2022/01/24 16:17:34;;;;;;;;;;;5.90;80.00;;;;;;5001315;28;20424;-80
2022/01/24 16:20:08;;;;;;;;;;;6.00;79.50;;;;;;4986732;28;19914;-80
2022/01/24 16:22:47;;;;;;;;;;;6.00;79.50;;;;;;4993124;28;19918;-80
2022/01/24 16:25:22;;;;;;;;;;;6.10;79.10;;;;;;4983939;28;19913;-80
2022/01/24 16:27:47;;;;;;;;;;;6.10;79.40;;;;;;5018633;28;19917;-81
2022/01/24 16:30:13;;;;;;;;;;;6.10;79.10;;;;;;5005076;28;19991;-81